createdAt,value
2017-11-06T00:01:23.560Z,76.30
2017-11-06T00:03:50.313Z,76.50
2017-11-06T00:06:16.503Z,76.10
2017-11-06T00:08:42.706Z,77.20
2017-11-06T00:11:09.412Z,77.10
2017-11-06T00:13:36.058Z,76.90
2017-11-06T00:16:03.875Z,76.00
2017-11-06T00:18:30.183Z,76.30
2017-11-06T00:20:57.891Z,76.20
2017-11-06T00:23:24.479Z,77.10
2017-11-06T00:25:51.236Z,77.20
2017-11-06T00:28:18.411Z,77.60
2017-11-06T00:30:44.606Z,77.30
2017-11-06T00:33:10.987Z,77.30
2017-11-06T00:45:18.450Z,76.80
2017-11-06T00:47:44.634Z,76.80
2017-11-06T00:50:11.063Z,77.20
2017-11-06T00:52:39.050Z,77.20
2017-11-06T00:55:05.749Z,77.40
2017-11-06T00:57:33.174Z,77.40
2017-11-06T00:59:59.462Z,78.00
2017-11-06T01:02:25.652Z,78.20
2017-11-06T01:04:51.895Z,78.10
2017-11-06T01:07:18.123Z,78.40
2017-11-06T01:09:45.472Z,78.50
2017-11-06T01:12:11.682Z,78.30
2017-11-06T01:14:37.952Z,78.30
2017-11-06T01:17:05.305Z,78.20
2017-11-06T01:29:11.540Z,78.80
2017-11-06T01:31:37.983Z,78.10
2017-11-06T01:34:04.184Z,78.40
2017-11-06T01:38:58.285Z,77.90
2017-11-06T01:41:24.915Z,78.40
2017-11-06T01:43:51.111Z,78.10
2017-11-06T01:46:17.358Z,77.70
2017-11-06T01:48:43.716Z,77.40
2017-11-06T01:51:10.333Z,77.30
2017-11-06T01:53:37.293Z,77.20
2017-11-06T01:56:05.367Z,77.70
2017-11-06T01:58:32.449Z,78.70
2017-11-06T02:00:58.852Z,78.20
2017-11-06T02:03:25.059Z,77.50
2017-11-06T02:05:52.866Z,76.90
2017-11-06T02:08:19.442Z,76.70
2017-11-06T02:10:47.505Z,77.00
2017-11-06T02:13:13.696Z,77.10
2017-11-06T02:18:11.011Z,77.70
2017-11-06T02:20:37.283Z,77.00
2017-11-06T02:23:03.567Z,77.30
2017-11-06T02:25:32.296Z,77.00
2017-11-06T02:27:59.135Z,77.40
2017-11-06T02:30:25.553Z,77.50
2017-11-06T02:32:52.175Z,77.40
2017-11-06T02:35:18.395Z,77.80
2017-11-06T02:37:44.596Z,77.60
2017-11-06T02:40:10.850Z,77.40
2017-11-06T02:42:37.048Z,77.20
2017-11-06T02:45:03.223Z,77.30
2017-11-06T02:47:29.866Z,77.60
2017-11-06T02:49:56.260Z,77.40
2017-11-06T02:52:22.521Z,77.20
2017-11-06T02:54:48.721Z,77.50
2017-11-06T02:57:14.875Z,77.50
2017-11-06T02:59:41.067Z,77.10
2017-11-06T03:02:08.013Z,76.10
2017-11-06T03:04:34.222Z,75.90
2017-11-06T03:07:01.032Z,76.10
2017-11-06T03:09:27.242Z,76.50
2017-11-06T03:11:54.582Z,76.10
2017-11-06T03:14:20.798Z,76.80
2017-11-06T03:16:46.943Z,75.00
2017-11-06T03:19:13.164Z,76.90
2017-11-06T03:21:39.434Z,76.80
2017-11-06T03:24:06.673Z,77.10
2017-11-06T03:26:32.934Z,77.10
2017-11-06T03:28:59.104Z,77.00
2017-11-06T03:31:25.290Z,77.10
2017-11-06T03:33:51.502Z,76.80
2017-11-06T03:36:17.734Z,77.30
2017-11-06T03:38:44.789Z,77.00
2017-11-06T03:41:10.986Z,76.90
2017-11-06T03:43:38.159Z,76.90
2017-11-06T03:46:04.359Z,77.00
2017-11-06T03:48:30.622Z,77.10
2017-11-06T03:50:56.815Z,76.90
2017-11-06T03:53:23.080Z,77.00
2017-11-06T03:55:49.261Z,77.30
2017-11-06T03:58:15.464Z,77.50
2017-11-06T04:00:41.680Z,77.10
2017-11-06T04:03:07.876Z,77.10
2017-11-06T04:05:35.567Z,77.10
2017-11-06T04:08:01.724Z,76.80
2017-11-06T04:10:28.142Z,77.00
2017-11-06T04:12:54.348Z,76.00
2017-11-06T04:15:20.573Z,75.60
2017-11-06T04:17:46.769Z,76.30
2017-11-06T04:20:12.973Z,76.50
2017-11-06T04:22:39.894Z,75.80
2017-11-06T04:25:06.116Z,76.60
2017-11-06T04:27:33.063Z,76.60
2017-11-06T04:29:59.316Z,76.60
2017-11-06T04:32:25.554Z,76.50
2017-11-06T04:34:53.223Z,76.40
2017-11-06T04:37:19.818Z,76.10
2017-11-06T04:39:46.083Z,76.60
2017-11-06T04:42:12.701Z,76.40
2017-11-06T04:44:38.926Z,76.50
2017-11-06T04:47:05.102Z,75.90
2017-11-06T04:49:31.292Z,75.60
2017-11-06T04:51:57.840Z,75.70
2017-11-06T04:54:24.052Z,76.10
2017-11-06T04:56:50.204Z,76.00
2017-11-06T04:59:16.419Z,76.50
2017-11-06T05:01:42.609Z,76.80
2017-11-06T05:04:09.609Z,76.10
2017-11-06T05:06:35.798Z,76.30
2017-11-06T05:09:02.075Z,76.80
2017-11-06T05:11:28.291Z,76.90
2017-11-06T05:13:56.054Z,77.10
2017-11-06T05:16:22.235Z,77.30
2017-11-06T05:18:48.436Z,77.50
2017-11-06T05:21:15.458Z,77.80
2017-11-06T05:23:41.730Z,77.60
2017-11-06T05:26:07.957Z,77.20
2017-11-06T05:28:34.789Z,77.50
2017-11-06T05:31:01.602Z,77.90
2017-11-06T05:33:29.371Z,77.70
2017-11-06T05:35:55.636Z,78.10
2017-11-06T05:38:21.870Z,77.70
2017-11-06T05:40:48.472Z,77.10
2017-11-06T05:43:14.633Z,77.50
2017-11-06T05:45:40.812Z,76.90
2017-11-06T05:48:07.036Z,77.00
2017-11-06T05:50:33.835Z,76.80
2017-11-06T05:53:00.050Z,77.10
2017-11-06T05:55:26.265Z,77.00
2017-11-06T05:57:53.350Z,77.10
2017-11-06T06:00:19.517Z,76.90
2017-11-06T06:02:46.451Z,77.00
2017-11-06T06:05:12.610Z,76.40
2017-11-06T06:07:38.831Z,76.40
2017-11-06T06:10:05.376Z,76.60
2017-11-06T06:12:33.931Z,78.00
2017-11-06T06:15:01.271Z,76.80
2017-11-06T06:17:27.850Z,76.80
2017-11-06T06:19:54.382Z,77.00
2017-11-06T06:22:21.321Z,77.60
2017-11-06T06:24:47.601Z,77.20
2017-11-06T06:27:15.450Z,77.20
2017-11-06T06:29:41.815Z,76.60
2017-11-06T06:32:08.127Z,76.80
2017-11-06T06:34:35.295Z,76.70
2017-11-06T06:37:01.558Z,76.00
2017-11-06T06:39:31.228Z,76.50
2017-11-06T06:41:57.413Z,76.80
2017-11-06T06:44:23.679Z,75.90
2017-11-06T06:56:32.320Z,75.60
2017-11-06T06:58:58.967Z,75.80
2017-11-06T07:01:26.524Z,76.00
2017-11-06T07:03:52.795Z,76.20
2017-11-06T07:06:19.787Z,76.60
2017-11-06T07:11:14.687Z,76.80
2017-11-06T07:13:40.917Z,77.30
2017-11-06T07:16:08.258Z,76.80
2017-11-06T07:18:34.775Z,76.90
2017-11-06T07:21:01.037Z,76.90
2017-11-06T07:23:27.263Z,77.30
2017-11-06T07:25:53.475Z,76.60
2017-11-06T07:28:20.357Z,76.80
2017-11-06T07:30:46.548Z,76.20
2017-11-06T07:33:12.856Z,76.10
2017-11-06T07:35:39.082Z,75.60
2017-11-06T07:38:05.270Z,75.50
2017-11-06T07:40:32.212Z,75.30
2017-11-06T07:42:58.504Z,75.50
2017-11-06T07:45:25.506Z,74.90
2017-11-06T07:47:51.696Z,74.90
2017-11-06T07:50:18.821Z,74.70
2017-11-06T07:52:45.024Z,74.80
2017-11-06T07:55:11.205Z,74.80
2017-11-06T07:57:38.285Z,74.10
2017-11-06T08:00:05.115Z,74.00
2017-11-06T08:02:33.318Z,73.60
2017-11-06T08:04:59.491Z,73.50
2017-11-06T08:07:25.700Z,73.40
2017-11-06T08:09:52.634Z,73.20
2017-11-06T08:12:18.798Z,72.40
2017-11-06T08:24:26.541Z,70.80
2017-11-06T08:26:52.782Z,70.30
2017-11-06T08:29:18.971Z,69.50
2017-11-06T08:31:45.192Z,68.90
2017-11-06T08:34:11.410Z,68.10
2017-11-06T08:36:37.604Z,67.40
2017-11-06T08:39:03.843Z,66.80
2017-11-06T08:41:30.028Z,65.10
2017-11-06T08:43:56.248Z,64.30
2017-11-06T08:46:23.518Z,64.10
2017-11-06T08:48:49.752Z,63.70
2017-11-06T08:51:16.786Z,62.80
2017-11-06T08:53:43.012Z,61.10
2017-11-06T08:56:10.509Z,60.70
2017-11-06T08:58:37.013Z,59.80
2017-11-06T09:01:03.266Z,59.40
2017-11-06T09:03:29.455Z,58.80
2017-11-06T09:05:55.696Z,58.40
2017-11-06T09:08:21.910Z,57.70
2017-11-06T09:10:48.152Z,57.80
2017-11-06T09:13:16.011Z,57.40
2017-11-06T09:15:42.209Z,57.20
2017-11-06T09:18:09.133Z,56.60
2017-11-06T09:20:35.868Z,55.80
2017-11-06T09:23:02.087Z,55.90
2017-11-06T09:25:28.287Z,55.40
2017-11-06T09:27:55.326Z,54.40
2017-11-06T09:30:21.580Z,53.50
2017-11-06T09:32:47.863Z,53.50
2017-11-06T09:35:14.109Z,53.00
2017-11-06T09:37:40.374Z,52.60
2017-11-06T09:40:06.649Z,53.60
2017-11-06T09:42:33.630Z,52.80
2017-11-06T09:44:59.862Z,52.80
2017-11-06T09:47:26.082Z,52.90
2017-11-06T09:49:52.246Z,52.80
2017-11-06T09:52:18.437Z,51.60
2017-11-06T09:54:44.618Z,51.70
2017-11-06T09:57:10.794Z,48.90
2017-11-06T09:59:37.755Z,50.20
2017-11-06T10:02:04.892Z,50.60
2017-11-06T10:04:31.123Z,49.60
2017-11-06T10:06:57.314Z,49.20
2017-11-06T10:09:23.547Z,49.30
2017-11-06T10:11:50.491Z,49.10
2017-11-06T10:14:16.663Z,48.40
2017-11-06T10:16:42.902Z,47.00
2017-11-06T10:28:49.576Z,47.20
2017-11-06T10:31:15.845Z,43.50
2017-11-06T10:33:42.041Z,53.50
2017-11-06T10:36:08.268Z,45.80
2017-11-06T10:38:34.497Z,46.60
2017-11-06T10:41:00.890Z,47.70
2017-11-06T10:43:27.115Z,49.60
2017-11-06T10:45:54.312Z,48.50
2017-11-06T10:48:20.604Z,47.00
2017-11-06T10:50:46.834Z,46.70
2017-11-06T10:53:13.032Z,45.60
2017-11-06T10:55:39.308Z,44.60
2017-11-06T11:07:46.375Z,46.40
2017-11-06T11:10:13.091Z,46.40
2017-11-06T11:12:40.126Z,45.10
2017-11-06T11:15:06.355Z,46.10
2017-11-06T11:17:32.874Z,46.90
2017-11-06T11:19:59.134Z,47.90
2017-11-06T11:22:25.402Z,48.10
2017-11-06T11:24:51.651Z,47.50
2017-11-06T11:27:18.897Z,46.30
2017-11-06T11:29:45.133Z,46.30
2017-11-06T11:32:11.401Z,55.80
2017-11-06T11:34:37.705Z,47.10
2017-11-06T11:37:04.695Z,47.70
2017-11-06T11:39:30.902Z,49.30
2017-11-06T11:41:57.134Z,52.10
2017-11-06T11:44:24.302Z,50.30
2017-11-06T11:46:51.271Z,50.60
2017-11-06T11:49:17.858Z,51.80
2017-11-06T11:51:44.093Z,51.90
2017-11-06T11:54:10.362Z,52.90
2017-11-06T11:56:36.534Z,53.40
2017-11-06T11:59:02.736Z,52.50
2017-11-06T12:01:29.535Z,53.70
2017-11-06T12:03:56.090Z,53.90
2017-11-06T12:06:22.306Z,54.20
2017-11-06T12:08:49.263Z,54.50
2017-11-06T12:11:15.442Z,54.20
2017-11-06T12:13:42.440Z,55.00
2017-11-06T12:16:08.576Z,54.90
2017-11-06T12:18:35.504Z,54.90
2017-11-06T12:21:01.705Z,54.90
2017-11-06T12:23:27.924Z,54.80
2017-11-06T12:25:54.397Z,54.80
2017-11-06T12:28:21.094Z,54.80
2017-11-06T12:30:48.211Z,54.80
2017-11-06T12:33:15.407Z,54.80
2017-11-06T12:35:56.590Z,54.70
2017-11-06T12:38:24.463Z,54.60
2017-11-06T12:40:51.422Z,54.90
2017-11-06T12:43:17.622Z,54.70
2017-11-06T12:45:43.852Z,55.30
2017-11-06T12:48:10.064Z,55.10
2017-11-06T12:50:36.279Z,55.30
2017-11-06T12:53:02.449Z,54.80
2017-11-06T12:55:28.662Z,54.90
2017-11-06T12:57:54.885Z,54.10
2017-11-06T13:00:21.882Z,53.90
2017-11-06T13:02:48.109Z,52.90
2017-11-06T13:05:14.706Z,54.00
2017-11-06T13:07:42.172Z,54.60
2017-11-06T13:10:08.389Z,54.80
2017-11-06T13:12:34.628Z,54.80
2017-11-06T13:15:00.933Z,55.00
2017-11-06T13:17:28.179Z,54.90
2017-11-06T13:19:55.307Z,54.70
2017-11-06T13:22:21.507Z,54.70
2017-11-06T13:24:47.966Z,55.10
2017-11-06T13:27:14.199Z,55.10
2017-11-06T13:29:40.373Z,55.00
2017-11-06T13:32:06.610Z,55.20
2017-11-06T13:34:32.872Z,55.00
2017-11-06T13:36:59.057Z,55.10
2017-11-06T13:39:25.962Z,55.30
2017-11-06T13:41:52.156Z,54.20
2017-11-06T13:44:19.110Z,56.20
2017-11-06T13:46:46.396Z,56.90
2017-11-06T13:49:12.600Z,54.90
2017-11-06T13:51:41.253Z,55.80
2017-11-06T13:54:08.221Z,52.90
2017-11-06T13:56:34.398Z,52.60
2017-11-06T13:59:00.654Z,53.90
2017-11-06T14:01:26.829Z,52.40
2017-11-06T14:03:53.116Z,54.00
2017-11-06T14:06:19.326Z,52.80
2017-11-06T14:08:45.871Z,52.70
2017-11-06T14:11:12.113Z,52.20
2017-11-06T14:13:38.350Z,51.90
2017-11-06T14:16:04.894Z,53.20
2017-11-06T14:18:32.608Z,52.70
2017-11-06T14:20:59.416Z,51.80
2017-11-06T14:33:07.503Z,53.80
2017-11-06T14:35:35.402Z,52.50
2017-11-06T14:38:01.991Z,52.70
2017-11-06T14:40:28.171Z,52.00
2017-11-06T14:42:54.388Z,53.20
2017-11-06T14:45:20.631Z,53.80
2017-11-06T14:47:47.538Z,55.60
2017-11-06T14:50:13.791Z,54.90
2017-11-06T14:52:40.756Z,52.10
2017-11-06T14:55:07.230Z,53.80
2017-11-06T14:57:33.396Z,54.70
2017-11-06T14:59:59.611Z,55.60
2017-11-06T15:02:25.837Z,56.00
2017-11-06T15:04:52.829Z,56.10
2017-11-06T15:07:19.834Z,57.20
2017-11-06T15:09:46.794Z,57.10
2017-11-06T15:12:12.997Z,57.40
2017-11-06T15:14:39.638Z,57.40
2017-11-06T15:17:06.697Z,57.30
2017-11-06T15:19:33.334Z,57.70
2017-11-06T15:24:29.001Z,58.70
2017-11-06T15:26:56.647Z,58.70
2017-11-06T15:29:22.877Z,59.30
2017-11-06T15:31:49.700Z,59.50
2017-11-06T15:34:15.973Z,60.90
2017-11-06T15:36:42.242Z,60.00
2017-11-06T15:39:10.166Z,60.30
2017-11-06T15:41:36.330Z,60.70
2017-11-06T15:46:30.811Z,60.90
2017-11-06T15:48:57.696Z,61.20
2017-11-06T15:51:23.940Z,60.90
2017-11-06T15:53:50.370Z,60.90
2017-11-06T15:56:17.591Z,60.80
2017-11-06T15:58:45.165Z,62.10
2017-11-06T16:01:11.347Z,61.30
2017-11-06T16:03:37.572Z,61.00
2017-11-06T16:06:03.811Z,61.50
2017-11-06T16:08:30.779Z,61.40
2017-11-06T16:10:57.752Z,62.10
2017-11-06T16:13:24.064Z,61.50
2017-11-06T16:15:50.256Z,61.90
2017-11-06T16:18:16.514Z,63.60
2017-11-06T16:20:42.798Z,63.80
2017-11-06T16:23:09.389Z,64.10
2017-11-06T16:25:36.933Z,64.40
2017-11-06T16:28:03.207Z,65.20
2017-11-06T16:30:30.157Z,65.60
2017-11-06T16:32:57.555Z,65.50
2017-11-06T16:35:24.628Z,65.50
2017-11-06T16:37:51.678Z,65.50
2017-11-06T16:40:20.016Z,65.50
2017-11-06T16:42:46.621Z,65.60
2017-11-06T16:45:13.010Z,65.50
2017-11-06T16:47:41.322Z,65.70
2017-11-06T16:50:08.595Z,66.20
2017-11-06T16:52:36.011Z,66.50
2017-11-06T16:55:03.404Z,66.50
2017-11-06T16:57:29.611Z,66.90
2017-11-06T16:59:57.815Z,73.00
2017-11-06T17:02:25.779Z,68.60
2017-11-06T17:04:52.069Z,67.10
2017-11-06T17:07:19.035Z,66.70
2017-11-06T17:09:45.262Z,67.00
2017-11-06T17:12:12.738Z,67.50
2017-11-06T17:14:39.694Z,67.70
2017-11-06T17:19:33.978Z,68.10
2017-11-06T17:22:00.623Z,68.00
2017-11-06T17:24:26.882Z,68.00
2017-11-06T17:26:53.100Z,68.30
2017-11-06T17:29:19.274Z,68.60
2017-11-06T17:31:45.703Z,68.40
2017-11-06T17:34:13.183Z,68.50
2017-11-06T17:36:40.620Z,68.10
2017-11-06T17:39:07.953Z,68.30
2017-11-06T17:41:35.493Z,68.50
2017-11-06T17:44:01.774Z,69.00
2017-11-06T17:46:29.885Z,69.00
2017-11-06T17:58:36.197Z,70.30
2017-11-06T18:01:04.908Z,70.00
2017-11-06T18:03:31.164Z,70.40
2017-11-06T18:05:57.447Z,70.30
2017-11-06T18:08:23.704Z,70.80
2017-11-06T18:10:51.460Z,70.70
2017-11-06T18:13:18.765Z,71.00
2017-11-06T18:15:45.102Z,71.10
2017-11-06T18:18:11.396Z,71.30
2017-11-06T18:20:37.875Z,71.50
2017-11-06T18:23:07.944Z,71.50
2017-11-06T18:25:37.336Z,72.10
2017-11-06T18:28:04.805Z,72.20
2017-11-06T18:30:31.509Z,71.80
2017-11-06T18:33:02.258Z,71.30
2017-11-06T18:37:57.167Z,71.20
2017-11-06T18:40:23.564Z,71.40
2017-11-06T18:42:49.756Z,71.20
2017-11-06T18:45:18.279Z,71.40
2017-11-06T18:47:45.998Z,71.70
2017-11-06T18:50:13.811Z,71.90
2017-11-06T18:52:41.452Z,71.70
2017-11-06T18:55:07.870Z,71.60
2017-11-06T18:57:35.761Z,71.60
2017-11-06T19:00:02.162Z,71.60
2017-11-06T19:02:35.928Z,71.60
2017-11-06T19:05:08.932Z,72.10
2017-11-06T19:07:35.866Z,72.80
2017-11-06T19:10:07.415Z,72.80
2017-11-06T19:12:36.865Z,72.70
2017-11-06T19:15:06.146Z,72.60
2017-11-06T19:17:33.090Z,72.60
2017-11-06T19:19:59.423Z,72.70
2017-11-06T19:22:26.417Z,72.00
2017-11-06T19:24:53.691Z,72.30
2017-11-06T19:27:19.999Z,72.60
2017-11-06T19:29:46.431Z,72.60
2017-11-06T19:32:12.667Z,72.50
2017-11-06T19:34:39.251Z,72.60
2017-11-06T19:37:05.551Z,73.10
2017-11-06T19:39:32.294Z,73.10
2017-11-06T19:51:38.506Z,73.60
2017-11-06T19:54:04.714Z,73.70
2017-11-06T19:56:30.969Z,73.60
2017-11-06T19:58:57.140Z,73.60
2017-11-06T20:01:24.514Z,73.60
2017-11-06T20:03:51.126Z,74.00
2017-11-06T20:06:17.703Z,74.10
2017-11-06T20:08:43.946Z,74.00
2017-11-06T20:11:10.518Z,74.10
2017-11-06T20:13:37.468Z,74.20
2017-11-06T20:16:04.452Z,73.70
2017-11-06T20:28:11.120Z,73.50
2017-11-06T20:30:38.309Z,73.90
2017-11-06T20:33:04.605Z,74.10
2017-11-06T20:35:30.899Z,74.30
2017-11-06T20:37:57.117Z,73.80
2017-11-06T20:40:23.376Z,74.00
2017-11-06T20:42:49.624Z,73.80
2017-11-06T20:45:15.947Z,73.70
2017-11-06T20:47:42.226Z,73.60
2017-11-06T20:50:08.433Z,74.10
2017-11-06T20:52:34.756Z,74.70
2017-11-06T20:55:01.704Z,74.40
2017-11-06T20:57:27.995Z,74.10
2017-11-06T20:59:55.070Z,73.60
2017-11-06T21:02:21.322Z,73.50
2017-11-06T21:04:47.578Z,72.90
2017-11-06T21:07:14.523Z,72.50
2017-11-06T21:09:40.793Z,72.40
2017-11-06T21:12:07.098Z,72.30
2017-11-06T21:14:34.325Z,71.90
2017-11-06T21:17:01.095Z,71.90
2017-11-06T21:19:27.324Z,72.00
2017-11-06T21:21:55.072Z,71.90
2017-11-06T21:24:21.360Z,71.70
2017-11-06T21:26:48.621Z,72.00
2017-11-06T21:29:23.149Z,73.00
2017-11-06T21:31:49.354Z,73.50
2017-11-06T21:34:15.591Z,73.70
2017-11-06T21:36:42.783Z,74.10
2017-11-06T21:39:09.428Z,74.40
2017-11-06T21:41:36.156Z,73.90
2017-11-06T21:44:03.581Z,74.20
2017-11-06T21:46:30.076Z,74.00
2017-11-06T21:48:56.495Z,74.40
2017-11-06T21:51:22.998Z,73.60
2017-11-06T21:53:49.323Z,73.50
2017-11-06T21:56:15.583Z,73.10
2017-11-06T21:58:43.980Z,73.10
2017-11-06T22:01:10.225Z,73.50
2017-11-06T22:03:36.771Z,72.60
2017-11-06T22:06:03.343Z,72.90
2017-11-06T22:08:30.548Z,72.80
2017-11-06T22:10:56.712Z,73.10
2017-11-06T22:13:23.657Z,72.00
2017-11-06T22:15:51.235Z,72.50
2017-11-06T22:18:19.351Z,72.10
2017-11-06T22:20:46.107Z,72.10
2017-11-06T22:23:12.504Z,72.10
2017-11-06T22:25:38.721Z,72.30
2017-11-06T22:28:04.988Z,72.10
2017-11-06T22:30:31.327Z,72.10
2017-11-06T22:32:59.127Z,72.20
2017-11-06T22:35:25.505Z,72.50
2017-11-06T22:37:52.610Z,72.80
2017-11-06T22:40:18.816Z,73.50
2017-11-06T22:42:45.041Z,72.80
2017-11-06T22:45:11.874Z,72.80
2017-11-06T22:47:38.930Z,73.20
2017-11-06T22:50:05.164Z,73.60
2017-11-06T22:52:31.787Z,73.10
2017-11-06T22:54:58.559Z,73.40
2017-11-06T22:57:25.313Z,73.80
2017-11-06T22:59:52.296Z,73.40
2017-11-06T23:02:18.730Z,73.50
2017-11-06T23:04:45.696Z,73.10
2017-11-06T23:07:11.854Z,73.80
2017-11-06T23:09:38.053Z,73.60
2017-11-06T23:12:04.322Z,73.90
2017-11-06T23:14:32.027Z,73.40
2017-11-06T23:16:58.285Z,73.40
2017-11-06T23:19:24.532Z,73.10
2017-11-06T23:21:52.380Z,72.50
2017-11-06T23:24:18.592Z,72.70
2017-11-06T23:26:44.824Z,73.40
2017-11-06T23:29:11.402Z,72.70
2017-11-06T23:31:37.824Z,72.70
2017-11-06T23:34:04.758Z,73.10
2017-11-06T23:36:30.951Z,72.90
2017-11-06T23:38:57.321Z,72.30
2017-11-06T23:41:23.840Z,71.80
2017-11-06T23:43:50.074Z,71.60
2017-11-06T23:46:16.255Z,70.90
2017-11-06T23:48:43.107Z,71.00
2017-11-06T23:51:09.341Z,70.90
2017-11-06T23:53:35.528Z,70.90
2017-11-06T23:56:01.759Z,68.00
2017-11-06T23:58:28.489Z,70.90
